createdAt,value
2019-04-16T00:25:43.525Z,4.33
2019-04-16T00:28:13.671Z,3.77
2019-04-16T00:30:45.219Z,3.33
2019-04-16T00:33:25.552Z,3.45
2019-04-16T00:35:55.381Z,3.20
2019-04-16T00:38:23.977Z,3.62
2019-04-16T00:41:00.715Z,3.40
2019-04-16T00:43:32.871Z,3.58
2019-04-16T00:46:01.772Z,3.70
2019-04-16T00:48:30.341Z,3.45
2019-04-16T00:50:58.840Z,3.70
2019-04-16T00:53:28.607Z,3.35
2019-04-16T00:55:57.688Z,3.60
2019-04-16T00:58:26.227Z,4.33
2019-04-16T01:00:55.989Z,3.45
2019-04-16T01:03:26.200Z,3.58
2019-04-16T01:05:56.519Z,3.35
2019-04-16T01:08:24.981Z,3.37
2019-04-16T01:10:53.873Z,2.80
2019-04-16T01:13:24.460Z,3.17
2019-04-16T01:15:54.184Z,3.72
2019-04-16T01:18:22.711Z,2.77
2019-04-16T01:20:51.140Z,3.55
2019-04-16T01:23:19.647Z,3.45
2019-04-16T01:25:49.740Z,2.87
2019-04-16T01:28:29.409Z,2.60
2019-04-16T01:31:01.226Z,2.20
2019-04-16T01:33:48.858Z,2.80
2019-04-16T01:36:33.907Z,2.62
2019-04-16T01:39:16.014Z,2.87
2019-04-16T01:41:34.274Z,2.65
2019-04-16T01:44:03.578Z,2.67
2019-04-16T01:46:33.691Z,2.67
2019-04-16T01:49:02.504Z,2.62
2019-04-16T01:51:31.021Z,2.45
2019-04-16T01:53:59.443Z,3.08
2019-04-16T01:56:28.897Z,2.85
2019-04-16T01:59:04.554Z,2.92
2019-04-16T02:01:30.117Z,2.47
2019-04-16T02:03:59.003Z,2.42
2019-04-16T02:06:28.464Z,3.00
2019-04-16T02:09:01.767Z,2.33
2019-04-16T02:11:28.031Z,2.40
2019-04-16T02:13:57.304Z,2.40
2019-04-16T02:16:26.057Z,3.05
2019-04-16T02:18:55.141Z,2.98
2019-04-16T02:21:24.142Z,2.50
2019-04-16T02:23:52.598Z,2.33
2019-04-16T02:26:23.571Z,2.22
2019-04-16T02:28:51.550Z,2.50
2019-04-16T02:31:20.065Z,2.70
2019-04-16T02:33:48.522Z,2.70
2019-04-16T02:36:19.818Z,2.72
2019-04-16T02:38:53.470Z,2.72
2019-04-16T02:41:18.573Z,3.02
2019-04-16T02:43:47.051Z,2.62
2019-04-16T02:46:15.833Z,2.90
2019-04-16T02:48:50.162Z,2.50
2019-04-16T02:51:16.091Z,2.77
2019-04-16T02:53:46.798Z,2.40
2019-04-16T02:56:33.333Z,2.67
2019-04-16T02:59:11.796Z,2.62
2019-04-16T03:01:53.473Z,2.40
2019-04-16T03:04:26.766Z,2.50
2019-04-16T03:06:54.764Z,2.40
2019-04-16T03:09:24.836Z,2.25
2019-04-16T03:11:53.276Z,2.30
2019-04-16T03:14:21.841Z,2.30
2019-04-16T03:17:10.675Z,2.33
2019-04-16T03:19:39.020Z,2.40
2019-04-16T03:22:07.495Z,1.75
2019-04-16T03:24:37.491Z,2.45
2019-04-16T03:27:07.810Z,2.55
2019-04-16T03:29:36.319Z,2.90
2019-04-16T03:32:04.850Z,2.60
2019-04-16T03:34:34.308Z,2.47
2019-04-16T03:37:03.111Z,2.37
2019-04-16T03:39:34.357Z,2.52
2019-04-16T03:42:02.800Z,2.65
2019-04-16T03:44:33.556Z,2.77
2019-04-16T03:47:02.189Z,2.90
2019-04-16T03:49:32.770Z,2.77
2019-04-16T03:52:07.509Z,2.90
2019-04-16T03:54:32.963Z,2.83
2019-04-16T03:57:04.594Z,2.80
2019-04-16T03:59:34.884Z,3.17
2019-04-16T04:02:03.277Z,2.75
2019-04-16T04:04:32.191Z,3.30
2019-04-16T04:07:00.684Z,3.20
2019-04-16T04:09:30.223Z,2.58
2019-04-16T04:12:00.864Z,3.00
2019-04-16T04:14:29.417Z,2.85
2019-04-16T04:16:59.616Z,2.80
2019-04-16T04:19:28.400Z,3.12
2019-04-16T04:21:58.090Z,3.20
2019-04-16T04:24:28.489Z,3.05
2019-04-16T04:26:56.785Z,2.85
2019-04-16T04:29:27.181Z,2.50
2019-04-16T04:31:55.723Z,2.62
2019-04-16T04:34:24.426Z,3.17
2019-04-16T04:36:53.404Z,2.95
2019-04-16T04:39:21.908Z,3.00
2019-04-16T04:41:52.690Z,2.90
2019-04-16T04:44:20.527Z,3.92
2019-04-16T04:46:49.022Z,3.08
2019-04-16T04:49:17.672Z,3.20
2019-04-16T04:51:46.256Z,2.83
2019-04-16T04:54:15.435Z,2.87
2019-04-16T04:56:43.933Z,2.65
2019-04-16T04:59:12.364Z,2.95
2019-04-16T05:01:42.035Z,2.60
2019-04-16T05:04:25.204Z,2.95
2019-04-16T05:06:57.318Z,3.40
2019-04-16T05:09:25.354Z,2.40
2019-04-16T05:11:53.860Z,2.60
2019-04-16T05:14:25.147Z,2.30
2019-04-16T05:16:52.460Z,2.70
2019-04-16T05:19:20.890Z,2.52
2019-04-16T05:21:50.030Z,2.72
2019-04-16T05:24:19.412Z,2.62
2019-04-16T05:26:48.150Z,2.10
2019-04-16T05:29:18.694Z,2.25
2019-04-16T05:31:46.872Z,2.33
2019-04-16T05:34:17.702Z,2.67
2019-04-16T05:36:47.702Z,2.35
2019-04-16T05:39:15.700Z,3.10
2019-04-16T05:41:44.198Z,3.10
2019-04-16T05:44:12.641Z,3.72
2019-04-16T05:46:44.442Z,3.35
2019-04-16T05:49:11.505Z,3.60
2019-04-16T05:51:39.981Z,3.47
2019-04-16T05:54:12.173Z,2.67
2019-04-16T05:56:44.696Z,3.30
2019-04-16T05:59:13.281Z,2.65
2019-04-16T06:01:46.309Z,2.87
2019-04-16T06:04:15.080Z,2.27
2019-04-16T06:06:43.566Z,3.40
2019-04-16T06:09:12.903Z,3.52
2019-04-16T06:11:41.786Z,3.22
2019-04-16T06:14:17.948Z,3.10
2019-04-16T06:16:46.679Z,2.72
2019-04-16T06:19:19.509Z,2.50
2019-04-16T06:22:05.968Z,2.62
2019-04-16T06:24:36.171Z,2.33
2019-04-16T06:27:09.257Z,2.37
2019-04-16T06:29:39.675Z,2.85
2019-04-16T06:32:21.618Z,2.50
2019-04-16T06:34:51.675Z,4.55
2019-04-16T06:37:27.463Z,2.27
2019-04-16T06:40:00.658Z,3.67
2019-04-16T06:42:30.708Z,4.10
2019-04-16T06:45:01.624Z,2.62
2019-04-16T06:47:35.537Z,2.10
2019-04-16T06:50:09.638Z,2.80
2019-04-16T06:52:55.791Z,2.10
2019-04-16T06:55:45.619Z,2.08
2019-04-16T06:58:18.589Z,2.30
2019-04-16T07:00:54.282Z,1.98
2019-04-16T07:03:27.057Z,1.90
2019-04-16T07:06:03.951Z,2.42
2019-04-16T07:08:51.038Z,1.90
2019-04-16T07:11:21.773Z,2.00
2019-04-16T07:13:50.345Z,1.80
2019-04-16T07:16:19.876Z,2.00
2019-04-16T07:18:48.315Z,2.55
2019-04-16T07:21:18.385Z,1.55
2019-04-16T07:23:47.268Z,1.70
2019-04-16T07:26:16.745Z,1.65
2019-04-16T07:28:47.025Z,1.85
2019-04-16T07:31:33.244Z,1.77
2019-04-16T07:34:03.295Z,1.52
2019-04-16T07:36:33.374Z,2.65
2019-04-16T07:39:28.649Z,1.80
2019-04-16T07:42:08.452Z,2.05
2019-04-16T07:44:31.104Z,1.62
2019-04-16T07:47:20.171Z,1.52
2019-04-16T07:49:49.889Z,1.32
2019-04-16T07:52:26.155Z,1.82
2019-04-16T07:54:56.208Z,1.50
2019-04-16T07:57:24.779Z,1.77
2019-04-16T07:59:53.210Z,1.95
2019-04-16T08:02:23.277Z,2.02
2019-04-16T08:04:54.026Z,1.60
2019-04-16T08:07:22.626Z,1.57
2019-04-16T08:09:51.259Z,1.57
2019-04-16T08:12:29.835Z,2.02
2019-04-16T08:14:50.444Z,1.77
2019-04-16T08:17:18.896Z,1.95
2019-04-16T08:19:49.162Z,1.80
2019-04-16T08:22:17.998Z,2.20
2019-04-16T08:24:50.805Z,1.80
2019-04-16T08:27:19.523Z,1.90
2019-04-16T08:29:48.003Z,1.50
2019-04-16T08:32:17.073Z,2.27
2019-04-16T08:34:45.696Z,1.87
2019-04-16T08:37:14.321Z,1.80
2019-04-16T08:39:42.747Z,1.90
2019-04-16T08:42:12.460Z,2.02
2019-04-16T08:44:41.023Z,2.10
2019-04-16T08:47:12.028Z,1.85
2019-04-16T08:49:39.682Z,1.95
2019-04-16T08:52:10.255Z,2.12
2019-04-16T08:54:38.413Z,1.60
2019-04-16T08:57:07.127Z,1.47
2019-04-16T08:59:35.770Z,1.55
2019-04-16T09:02:05.940Z,1.50
2019-04-16T09:04:35.643Z,1.70
2019-04-16T09:07:12.186Z,1.50
2019-04-16T09:09:38.684Z,1.60
2019-04-16T09:12:09.462Z,1.50
2019-04-16T09:14:39.600Z,1.80
2019-04-16T09:17:10.344Z,1.70
2019-04-16T09:19:40.625Z,1.57
2019-04-16T09:22:09.128Z,1.70
2019-04-16T09:24:41.443Z,1.60
2019-04-16T09:27:14.222Z,1.72
2019-04-16T09:30:00.432Z,1.30
2019-04-16T09:32:39.495Z,1.70
2019-04-16T09:35:21.638Z,1.90
2019-04-16T09:37:58.379Z,1.40
2019-04-16T09:40:34.965Z,1.30
2019-04-16T09:43:16.644Z,1.40
2019-04-16T09:45:40.221Z,1.40
2019-04-16T09:48:08.650Z,1.65
2019-04-16T09:50:42.976Z,1.52
2019-04-16T09:53:07.224Z,1.70
2019-04-16T09:55:37.357Z,1.45
2019-04-16T09:58:25.392Z,2.30
2019-04-16T10:01:11.049Z,1.60
2019-04-16T10:06:09.007Z,1.50
2019-04-16T10:08:44.504Z,1.50
2019-04-16T10:11:09.534Z,1.37
2019-04-16T10:13:37.966Z,1.52
2019-04-16T10:16:06.458Z,1.42
2019-04-16T10:18:35.810Z,1.55
2019-04-16T10:21:04.592Z,1.50
2019-04-16T10:23:34.654Z,1.10
2019-04-16T10:26:03.425Z,1.22
2019-04-16T10:28:33.909Z,1.30
2019-04-16T10:31:04.503Z,1.25
2019-04-16T10:33:35.085Z,1.25
2019-04-16T10:36:04.576Z,1.10
2019-04-16T10:38:35.362Z,1.30
2019-04-16T10:41:05.458Z,1.20
2019-04-16T10:43:51.794Z,1.20
2019-04-16T10:46:35.453Z,1.17
2019-04-16T10:49:11.175Z,1.42
2019-04-16T10:51:41.248Z,1.47
2019-04-16T10:54:28.296Z,1.15
2019-04-16T10:57:10.259Z,1.32
2019-04-16T10:59:55.555Z,1.20
2019-04-16T11:02:34.392Z,1.27
2019-04-16T11:05:19.258Z,1.17
2019-04-16T11:07:47.920Z,2.35
2019-04-16T11:10:16.720Z,1.47
2019-04-16T11:12:45.164Z,1.30
2019-04-16T11:15:15.997Z,1.17
2019-04-16T11:17:44.592Z,1.67
2019-04-16T11:20:13.160Z,1.75
2019-04-16T11:22:42.050Z,1.10
2019-04-16T11:25:12.241Z,2.00
2019-04-16T11:27:40.687Z,1.27
2019-04-16T11:30:10.845Z,1.32
2019-04-16T11:32:40.218Z,1.30
2019-04-16T11:35:08.818Z,1.37
2019-04-16T11:37:43.628Z,1.40
2019-04-16T11:40:09.038Z,1.30
2019-04-16T11:42:37.610Z,1.10
2019-04-16T11:45:06.773Z,1.05
2019-04-16T11:47:36.300Z,1.27
2019-04-16T11:50:06.706Z,1.40
2019-04-16T11:52:35.284Z,1.30
2019-04-16T11:55:05.015Z,1.65
2019-04-16T11:57:34.115Z,1.30
2019-04-16T12:00:07.763Z,1.12
2019-04-16T12:02:52.815Z,1.25
2019-04-16T12:05:31.763Z,1.40
2019-04-16T12:08:01.852Z,1.45
2019-04-16T12:10:40.885Z,1.40
2019-04-16T12:13:16.883Z,1.60
2019-04-16T12:15:47.041Z,1.52
2019-04-16T12:18:20.422Z,2.05
2019-04-16T12:20:50.743Z,1.60
2019-04-16T12:23:20.780Z,1.42
2019-04-16T12:26:10.004Z,1.65
2019-04-16T12:28:43.577Z,2.40
2019-04-16T12:31:17.230Z,1.65
2019-04-16T12:33:47.379Z,1.70
2019-04-16T12:36:29.660Z,1.50
2019-04-16T12:39:18.398Z,1.30
2019-04-16T12:42:02.792Z,1.20
2019-04-16T12:44:44.565Z,1.40
2019-04-16T12:47:05.723Z,1.60
2019-04-16T12:49:48.859Z,1.62
2019-04-16T12:52:22.212Z,1.65
2019-04-16T12:54:59.381Z,4.00
2019-04-16T12:57:37.733Z,1.75
2019-04-16T13:00:11.860Z,1.72
2019-04-16T13:02:53.971Z,1.12
2019-04-16T13:05:31.213Z,1.35
2019-04-16T13:08:19.367Z,1.15
2019-04-16T13:10:49.633Z,1.32
2019-04-16T13:13:28.577Z,1.40
2019-04-16T13:15:58.648Z,1.42
2019-04-16T13:18:44.851Z,1.30
2019-04-16T13:21:20.799Z,1.60
2019-04-16T13:23:50.877Z,1.32
2019-04-16T13:26:27.048Z,1.10
2019-04-16T13:28:57.159Z,1.22
2019-04-16T13:31:25.612Z,1.42
2019-04-16T13:33:54.291Z,2.70
2019-04-16T13:36:27.890Z,1.27
2019-04-16T13:39:00.639Z,1.30
2019-04-16T13:41:29.344Z,1.60
2019-04-16T13:44:09.265Z,1.45
2019-04-16T13:46:35.902Z,2.37
2019-04-16T13:49:14.548Z,1.90
2019-04-16T13:51:45.079Z,1.27
2019-04-16T13:54:27.932Z,1.47
2019-04-16T13:57:03.245Z,1.55
2019-04-16T13:59:49.924Z,1.60
2019-04-16T14:02:20.018Z,1.70
2019-04-16T14:04:48.582Z,1.47
2019-04-16T14:07:17.044Z,1.60
2019-04-16T14:09:45.644Z,1.52
2019-04-16T14:12:14.238Z,2.65
2019-04-16T14:14:42.875Z,1.98
2019-04-16T14:17:17.626Z,1.70
2019-04-16T14:19:43.287Z,1.55
2019-04-16T14:22:11.744Z,1.40
2019-04-16T14:24:40.549Z,1.55
2019-04-16T14:27:09.786Z,1.40
2019-04-16T14:29:38.876Z,1.65
2019-04-16T14:32:08.038Z,1.30
2019-04-16T14:34:44.172Z,1.72
2019-04-16T14:37:12.750Z,2.22
2019-04-16T14:39:42.819Z,1.77
2019-04-16T14:42:11.709Z,1.50
2019-04-16T14:44:42.328Z,1.60
2019-04-16T14:47:12.183Z,1.60
2019-04-16T14:49:40.619Z,1.30
2019-04-16T14:52:09.114Z,1.60
2019-04-16T14:54:39.676Z,2.15
2019-04-16T14:57:10.944Z,1.70
2019-04-16T14:59:57.654Z,1.55
2019-04-16T15:02:29.490Z,2.30
2019-04-16T15:05:05.505Z,2.20
2019-04-16T15:07:47.576Z,2.83
2019-04-16T15:10:27.117Z,1.95
2019-04-16T15:13:03.089Z,2.37
2019-04-16T15:15:48.567Z,2.33
2019-04-16T15:18:33.917Z,2.30
2019-04-16T15:21:10.227Z,2.27
2019-04-16T15:23:38.754Z,2.72
2019-04-16T15:26:17.780Z,2.35
2019-04-16T15:28:48.240Z,2.15
2019-04-16T15:31:34.036Z,2.30
2019-04-16T15:34:12.872Z,2.35
2019-04-16T15:36:49.870Z,2.70
2019-04-16T15:39:17.648Z,2.37
2019-04-16T15:41:47.761Z,2.22
2019-04-16T15:44:22.632Z,2.30
2019-04-16T15:46:49.818Z,2.95
2019-04-16T15:49:23.172Z,2.20
2019-04-16T15:51:57.174Z,2.33
2019-04-16T15:54:33.096Z,2.22
2019-04-16T15:57:30.226Z,2.85
2019-04-16T16:00:09.393Z,2.08
2019-04-16T16:02:55.505Z,2.00
2019-04-16T16:05:31.448Z,2.80
2019-04-16T16:08:16.490Z,2.12
2019-04-16T16:11:01.959Z,2.85
2019-04-16T16:13:30.437Z,2.25
2019-04-16T16:15:58.897Z,2.22
2019-04-16T16:18:27.354Z,2.90
2019-04-16T16:20:55.926Z,3.35
2019-04-16T16:23:24.357Z,2.62
2019-04-16T16:25:52.824Z,2.52
2019-04-16T16:28:21.278Z,3.02
2019-04-16T16:30:49.903Z,2.62
2019-04-16T16:33:18.828Z,2.47
2019-04-16T16:35:57.690Z,2.47
2019-04-16T16:38:20.757Z,2.85
2019-04-16T16:40:49.767Z,3.33
2019-04-16T16:43:19.223Z,2.50
2019-04-16T16:46:01.947Z,3.08
2019-04-16T16:48:30.471Z,3.33
2019-04-16T16:50:58.989Z,4.90
2019-04-16T16:53:29.128Z,4.53
2019-04-16T16:55:59.200Z,4.75
2019-04-16T16:58:45.588Z,5.50
2019-04-16T17:01:21.761Z,3.17
2019-04-16T17:03:54.726Z,2.50
2019-04-16T17:06:25.121Z,2.90
2019-04-16T17:08:53.862Z,5.15
2019-04-16T17:11:22.769Z,4.47
2019-04-16T17:13:51.243Z,2.60
2019-04-16T17:16:19.690Z,2.90
2019-04-16T17:18:48.217Z,2.90
2019-04-16T17:21:17.194Z,3.10
2019-04-16T17:23:45.803Z,2.40
2019-04-16T17:26:16.082Z,3.05
2019-04-16T17:28:44.474Z,2.72
2019-04-16T17:31:12.944Z,2.58
2019-04-16T17:33:42.461Z,2.67
2019-04-16T17:36:11.171Z,2.40
2019-04-16T17:38:39.960Z,2.95
2019-04-16T17:41:13.103Z,2.60
2019-04-16T17:43:59.805Z,2.55
2019-04-16T17:46:34.465Z,3.42
2019-04-16T17:49:04.566Z,2.98
2019-04-16T17:51:34.658Z,4.30
2019-04-16T17:54:04.767Z,3.45
2019-04-16T17:56:46.558Z,3.10
2019-04-16T17:59:16.648Z,3.10
2019-04-16T18:02:01.469Z,3.58
2019-04-16T18:04:44.814Z,3.17
2019-04-16T18:07:15.219Z,3.52
2019-04-16T18:09:45.319Z,3.12
2019-04-16T18:12:17.005Z,3.15
2019-04-16T18:15:07.310Z,3.77
2019-04-16T18:17:47.404Z,3.17
2019-04-16T18:20:30.988Z,3.20
2019-04-16T18:23:10.229Z,3.37
2019-04-16T18:25:57.778Z,3.45
2019-04-16T18:28:36.760Z,2.72
2019-04-16T18:31:12.318Z,3.00
2019-04-16T18:33:51.491Z,2.87
2019-04-16T18:36:21.872Z,3.00
2019-04-16T18:39:08.650Z,2.62
2019-04-16T18:41:44.525Z,3.35
2019-04-16T18:44:32.697Z,2.95
2019-04-16T18:47:10.853Z,3.22
2019-04-16T18:49:39.733Z,2.80
2019-04-16T18:52:08.943Z,2.95
2019-04-16T18:54:37.961Z,3.15
2019-04-16T18:57:06.490Z,3.05
2019-04-16T18:59:34.927Z,3.72
2019-04-16T19:02:09.581Z,3.52
2019-04-16T19:04:38.295Z,3.65
2019-04-16T19:07:06.940Z,3.45
2019-04-16T19:09:35.384Z,3.60
2019-04-16T19:12:03.906Z,4.22
2019-04-16T19:14:36.314Z,3.52
2019-04-16T19:17:02.880Z,3.12
2019-04-16T19:19:31.389Z,3.02
2019-04-16T19:21:59.841Z,3.47
2019-04-16T19:24:28.377Z,3.20
2019-04-16T19:26:57.424Z,3.22
2019-04-16T19:29:26.221Z,3.50
2019-04-16T19:32:14.209Z,3.65
2019-04-16T19:34:42.897Z,3.37
2019-04-16T19:37:11.389Z,3.50
2019-04-16T19:39:39.848Z,3.85
2019-04-16T19:42:11.269Z,3.33
2019-04-16T19:44:40.053Z,3.33
2019-04-16T19:47:08.643Z,3.30
2019-04-16T19:49:37.186Z,3.37
2019-04-16T19:52:05.953Z,2.90
2019-04-16T19:54:34.559Z,3.40
2019-04-16T19:57:03.195Z,3.65
2019-04-16T19:59:31.644Z,3.05
2019-04-16T20:02:01.772Z,3.62
2019-04-16T20:04:30.277Z,3.75
2019-04-16T20:07:00.861Z,3.90
2019-04-16T20:09:28.913Z,3.33
2019-04-16T20:11:57.393Z,3.47
2019-04-16T20:14:26.002Z,3.42
2019-04-16T20:16:54.458Z,3.85
2019-04-16T20:19:22.994Z,3.72
2019-04-16T20:21:51.436Z,4.42
2019-04-16T20:24:19.904Z,3.85
2019-04-16T20:26:48.368Z,3.60
2019-04-16T20:29:18.218Z,3.72
2019-04-16T20:31:46.663Z,3.95
2019-04-16T20:34:17.948Z,3.77
2019-04-16T20:36:45.288Z,2.98
2019-04-16T20:39:13.885Z,3.58
2019-04-16T20:41:42.829Z,3.62
2019-04-16T20:44:11.268Z,2.90
2019-04-16T20:46:39.719Z,3.02
2019-04-16T20:49:10.623Z,2.65
2019-04-16T20:51:38.380Z,3.02
2019-04-16T20:54:12.168Z,3.45
2019-04-16T20:56:40.405Z,2.80
2019-04-16T20:59:07.339Z,3.17
2019-04-16T21:01:37.820Z,2.90
2019-04-16T21:04:06.825Z,3.45
2019-04-16T21:06:40.754Z,2.98
2019-04-16T21:09:07.103Z,2.35
2019-04-16T21:11:40.463Z,2.55
2019-04-16T21:14:05.668Z,3.08
2019-04-16T21:16:34.620Z,2.65
2019-04-16T21:19:03.117Z,3.10
2019-04-16T21:21:31.761Z,3.40
2019-04-16T21:24:00.234Z,3.00
2019-04-16T21:26:28.663Z,3.02
2019-04-16T21:29:07.419Z,2.72
2019-04-16T21:31:37.494Z,2.67
2019-04-16T21:34:10.710Z,2.52
2019-04-16T21:36:50.185Z,2.50
2019-04-16T21:39:29.498Z,2.70
2019-04-16T21:42:01.699Z,3.00
2019-04-16T21:44:27.975Z,3.30
2019-04-16T21:46:58.187Z,2.65
2019-04-16T21:49:38.299Z,2.27
2019-04-16T21:52:10.294Z,2.87
2019-04-16T21:54:39.547Z,2.50
2019-04-16T21:57:09.877Z,2.60
2019-04-16T21:59:38.270Z,2.30
2019-04-16T22:02:13.861Z,2.02
2019-04-16T22:04:42.685Z,2.80
2019-04-16T22:07:11.165Z,2.37
2019-04-16T22:09:40.968Z,3.10
2019-04-16T22:12:09.490Z,2.98
2019-04-16T22:14:38.091Z,2.60
2019-04-16T22:17:07.192Z,2.72
2019-04-16T22:19:53.007Z,2.80
2019-04-16T22:22:08.043Z,2.30
2019-04-16T22:24:36.467Z,2.87
2019-04-16T22:27:06.955Z,2.52
2019-04-16T22:29:35.262Z,2.40
2019-04-16T22:32:04.323Z,2.17
2019-04-16T22:34:32.859Z,2.60
2019-04-16T22:37:01.289Z,2.40
2019-04-16T22:39:44.968Z,2.35
2019-04-16T22:42:29.644Z,2.47
2019-04-16T22:45:17.365Z,2.72
2019-04-16T22:47:49.399Z,2.30
2019-04-16T22:50:19.011Z,2.87
2019-04-16T22:52:48.495Z,2.00
2019-04-16T22:55:16.994Z,2.70
2019-04-16T22:57:45.412Z,2.25
2019-04-16T23:00:18.170Z,2.67
2019-04-16T23:02:49.005Z,2.40
2019-04-16T23:05:17.716Z,2.85
2019-04-16T23:07:47.278Z,2.30
2019-04-16T23:10:17.876Z,2.02
2019-04-16T23:12:46.067Z,2.02
2019-04-16T23:15:14.771Z,2.60
2019-04-16T23:17:46.178Z,2.42
2019-04-16T23:20:28.194Z,2.37
2019-04-16T23:22:46.502Z,2.25
2019-04-16T23:25:14.120Z,2.20
2019-04-16T23:27:44.183Z,2.70
2019-04-16T23:30:15.737Z,2.62
2019-04-16T23:32:45.517Z,2.70
2019-04-16T23:35:13.992Z,2.20
2019-04-16T23:37:42.472Z,2.67
2019-04-16T23:40:12.850Z,2.25
2019-04-16T23:42:42.923Z,1.92
2019-04-16T23:45:31.412Z,2.60
2019-04-16T23:48:14.651Z,1.77
2019-04-16T23:50:45.193Z,1.92
2019-04-16T23:53:14.504Z,2.00
2019-04-16T23:55:56.507Z,2.20
2019-04-16T23:58:29.499Z,2.37
